Time;durP1;ratioP1;P1;durP2;ratioP2;P2;SDS_P1;SDS_P2;PMS_P1;PMS_P2;Temp;Humidity;BMP_temperature;BMP_pressure;BME280_temperature;BME280_humidity;BME280_pressure;Samples;Min_cycle;Max_cycle;Signal;HPM_P1;HPM_P2
2022/07/13 00:00:44;;;;;;;2.20;2.20;;;;;;;19.66;66.91;99745.19;5135617;27;20207;-67
2022/07/13 00:03:11;;;;;;;1.83;1.83;;;;;;;19.46;66.55;99748.19;5135437;27;20593;-67
2022/07/13 00:05:38;;;;;;;2.37;2.20;;;;;;;19.32;66.73;99742.97;5135566;27;20210;-67
2022/07/13 00:08:07;;;;;;;2.27;2.17;;;;;;;19.24;67.13;99745.19;5135395;27;20229;-67
2022/07/13 00:10:34;;;;;;;2.13;2.10;;;;;;;19.22;67.72;99741.84;5135565;27;20208;-67
2022/07/13 00:13:01;;;;;;;2.10;2.10;;;;;;;19.20;67.19;99738.47;5124046;27;20267;-67
2022/07/13 00:15:27;;;;;;;2.03;1.93;;;;;;;19.25;66.85;99746.88;5114860;28;20204;-67
2022/07/13 00:17:54;;;;;;;2.30;2.20;;;;;;;19.24;66.47;99750.38;5114836;28;20209;-67
2022/07/13 00:20:21;;;;;;;2.03;1.93;;;;;;;19.17;66.80;99751.66;5114881;28;20618;-67
2022/07/13 00:22:48;;;;;;;2.47;2.37;;;;;;;19.10;66.73;99748.59;5115102;28;20208;-67
2022/07/13 00:25:16;;;;;;;2.30;2.20;;;;;;;19.05;66.56;99745.44;5133994;27;20226;-67
2022/07/13 00:27:43;;;;;;;2.07;2.03;;;;;;;18.99;66.48;99755.38;5135258;27;20207;-68
2022/07/13 00:30:11;;;;;;;2.30;2.00;;;;;;;18.88;66.76;99754.22;5117796;27;20207;-67
2022/07/13 00:32:38;;;;;;;2.60;2.50;;;;;;;18.71;67.63;99750.94;5114506;28;20219;-67
2022/07/13 00:35:05;;;;;;;2.10;2.00;;;;;;;18.56;68.03;99744.88;5114400;28;20199;-67
2022/07/13 00:37:32;;;;;;;2.57;2.47;;;;;;;18.47;68.30;99747.97;5114424;28;20214;-67
2022/07/13 00:39:59;;;;;;;2.03;2.00;;;;;;;18.47;68.55;99752.31;5114506;28;20697;-67
2022/07/13 00:42:27;;;;;;;2.20;2.20;;;;;;;18.46;68.49;99743.69;5113955;28;20264;-67
2022/07/13 00:44:54;;;;;;;2.70;2.60;;;;;;;18.49;68.37;99753.06;5128193;27;20223;-67
2022/07/13 00:47:21;;;;;;;2.30;2.20;;;;;;;18.45;68.47;99751.56;5134434;27;21244;-67
2022/07/13 00:49:48;;;;;;;3.70;1.93;;;;;;;18.42;67.96;99744.78;5135064;27;20713;-67
2022/07/13 00:52:16;;;;;;;3.13;2.17;;;;;;;18.38;68.10;99743.28;5134558;27;20201;-66
2022/07/13 00:54:44;;;;;;;2.03;2.00;;;;;;;18.38;68.14;99751.09;5134637;27;20198;-67
2022/07/13 00:57:14;;;;;;;2.37;2.27;;;;;;;18.32;68.67;99744.47;5126027;27;20204;-67
2022/07/13 00:59:42;;;;;;;2.23;2.13;;;;;;;18.22;68.70;99742.50;5118011;27;20618;-67
2022/07/13 01:02:09;;;;;;;2.10;1.97;;;;;;;18.13;69.28;99748.16;5134736;27;20626;-67
2022/07/13 01:04:36;;;;;;;1.90;1.90;;;;;;;18.12;69.53;99751.69;5124114;27;20598;-67
2022/07/13 01:07:03;;;;;;;2.20;2.20;;;;;;;18.08;69.66;99739.81;5114317;28;20643;-67
2022/07/13 01:09:31;;;;;;;2.27;2.17;;;;;;;18.05;69.83;99740.81;5131325;27;20198;-67
2022/07/13 01:11:58;;;;;;;2.63;2.57;;;;;;;17.98;69.96;99738.63;5125806;27;20209;-67
2022/07/13 01:14:25;;;;;;;2.73;2.40;;;;;;;17.91;70.18;99726.91;5113592;28;20206;-67
2022/07/13 01:16:54;;;;;;;2.80;2.10;;;;;;;17.99;70.42;99746.34;5129345;27;20210;-67
2022/07/13 01:19:22;;;;;;;2.33;2.23;;;;;;;17.88;70.48;99729.69;5134433;27;20210;-67
2022/07/13 01:21:56;;;;;;;2.50;2.40;;;;;;;17.92;70.52;99745.00;5134038;27;20198;-67
2022/07/13 01:24:24;;;;;;;2.83;2.47;;;;;;;17.93;70.57;99735.47;5118555;27;20214;-67
2022/07/13 01:26:51;;;;;;;2.43;2.30;;;;;;;17.93;70.38;99730.28;5113483;28;20202;-67
2022/07/13 01:29:18;;;;;;;1.90;1.90;;;;;;;17.86;70.51;99734.13;5113493;28;20210;-67
2022/07/13 01:31:45;;;;;;;2.07;2.03;;;;;;;17.84;71.11;99727.25;5113283;28;20207;-67
2022/07/13 01:34:11;;;;;;;2.30;2.20;;;;;;;17.83;70.61;99735.94;5113273;28;20198;-67
2022/07/13 01:36:41;;;;;;;2.40;2.30;;;;;;;17.79;70.74;99729.28;5113123;28;20206;-67
2022/07/13 01:39:09;;;;;;;2.23;2.03;;;;;;;17.80;70.92;99730.94;5113242;28;20202;-66
2022/07/13 01:41:37;;;;;;;2.73;2.53;;;;;;;17.74;70.88;99733.84;5113140;28;20205;-67
2022/07/13 01:44:05;;;;;;;2.80;2.70;;;;;;;17.67;70.93;99714.38;5113302;28;20222;-67
2022/07/13 01:46:31;;;;;;;2.07;2.00;;;;;;;17.76;70.86;99726.00;5113097;28;20252;-66
2022/07/13 01:48:59;;;;;;;2.50;2.40;;;;;;;17.76;70.61;99726.84;5112749;28;20241;-66
2022/07/13 01:51:26;;;;;;;2.23;2.10;;;;;;;17.72;70.46;99712.38;5128512;27;20213;-67
2022/07/13 01:53:52;;;;;;;2.03;1.93;;;;;;;17.80;69.85;99725.75;5132725;27;20201;-67
2022/07/13 01:56:19;;;;;;;2.27;2.07;;;;;;;17.72;69.39;99716.72;5134098;27;20213;-66
2022/07/13 01:58:48;;;;;;;2.43;2.40;;;;;;;17.81;69.23;99727.44;5132265;27;20206;-66
2022/07/13 02:01:15;;;;;;;2.50;2.40;;;;;;;17.86;68.81;99731.53;5113502;28;20219;-66
2022/07/13 02:03:42;;;;;;;2.30;2.20;;;;;;;17.88;68.80;99733.13;5112906;28;20203;-67
2022/07/13 02:06:09;;;;;;;2.10;2.00;;;;;;;17.94;68.51;99731.94;5112768;28;20211;-67
2022/07/13 02:08:36;;;;;;;2.37;2.27;;;;;;;17.96;68.84;99730.13;5112800;28;20587;-67
2022/07/13 02:11:03;;;;;;;2.30;2.20;;;;;;;18.05;68.36;99734.78;5112627;28;20207;-66
2022/07/13 02:13:30;;;;;;;2.30;2.20;;;;;;;18.11;68.23;99730.09;5112741;28;20207;-67
2022/07/13 02:15:58;;;;;;;3.70;2.10;;;;;;;18.11;67.27;99729.25;5132829;27;20198;-66
2022/07/13 02:18:26;;;;;;;1.80;1.80;;;;;;;18.12;67.61;99720.56;5133086;27;20214;-66
2022/07/13 02:20:52;;;;;;;2.33;2.20;;;;;;;17.97;67.89;99721.38;5132989;27;20615;-67
2022/07/13 02:23:19;;;;;;;2.20;2.10;;;;;;;17.94;67.97;99724.16;5132989;27;20209;-66
2022/07/13 02:25:46;;;;;;;2.33;2.13;;;;;;;17.82;68.62;99723.94;5132946;27;20229;-67
2022/07/13 02:28:13;;;;;;;2.77;2.60;;;;;;;17.71;68.89;99712.44;5132867;27;20205;-67
2022/07/13 02:30:40;;;;;;;1.83;1.83;;;;;;;17.77;69.23;99720.72;5133545;27;20551;-67
2022/07/13 02:33:08;;;;;;;2.47;2.30;;;;;;;17.59;69.74;99721.72;5132793;27;20202;-66
2022/07/13 02:35:35;;;;;;;1.90;1.87;;;;;;;17.49;70.51;99723.09;5133500;27;20563;-67
2022/07/13 02:38:01;;;;;;;3.33;2.40;;;;;;;17.37;71.12;99716.00;5132684;27;20270;-66
2022/07/13 02:40:28;;;;;;;2.20;2.13;;;;;;;17.33;71.29;99719.66;5132932;27;20279;-66
2022/07/13 02:42:55;;;;;;;5.73;2.67;;;;;;;17.34;71.46;99718.75;5132993;27;20690;-66
2022/07/13 02:45:22;;;;;;;2.33;2.20;;;;;;;17.35;71.92;99717.81;5132507;28;20265;-67
2022/07/13 02:47:49;;;;;;;2.60;2.30;;;;;;;17.30;72.15;99715.47;5132686;27;20241;-68
2022/07/13 02:50:17;;;;;;;1.80;1.80;;;;;;;17.35;72.29;99727.38;5132683;28;20206;-67
2022/07/13 02:52:45;;;;;;;2.47;2.37;;;;;;;17.38;72.57;99722.00;5112482;28;20210;-67
2022/07/13 02:55:12;;;;;;;1.97;1.97;;;;;;;17.43;72.46;99726.03;5124636;28;20198;-66
2022/07/13 02:57:39;;;;;;;2.23;2.13;;;;;;;17.43;72.29;99720.00;5132788;27;20589;-67
2022/07/13 03:00:07;;;;;;;2.40;2.20;;;;;;;17.33;72.90;99714.47;5132649;28;20208;-67
2022/07/13 03:02:34;;;;;;;1.93;1.87;;;;;;;17.37;72.59;99720.34;5131632;28;20245;-67
2022/07/13 03:05:00;;;;;;;2.00;2.00;;;;;;;17.33;72.01;99715.31;5114626;28;20214;-67
2022/07/13 03:07:29;;;;;;;1.90;1.90;;;;;;;17.22;71.76;99711.63;5116102;28;20206;-67
2022/07/13 03:09:56;;;;;;;2.20;2.10;;;;;;;17.16;72.03;99712.75;5116270;28;20670;-67
2022/07/13 03:12:23;;;;;;;2.00;1.90;;;;;;;17.09;71.61;99713.97;5115985;28;20237;-67
2022/07/13 03:14:50;;;;;;;2.50;2.40;;;;;;;17.13;72.03;99717.25;5124537;27;20187;-67
2022/07/13 03:17:17;;;;;;;2.47;2.37;;;;;;;17.13;72.31;99715.50;5124731;27;20276;-66
2022/07/13 03:19:44;;;;;;;3.20;3.00;;;;;;;17.17;72.38;99716.19;5136735;27;20205;-67
2022/07/13 03:22:10;;;;;;;3.17;2.70;;;;;;;17.17;72.68;99717.03;5136495;27;20640;-66
2022/07/13 03:24:38;;;;;;;2.57;2.47;;;;;;;17.09;72.84;99705.41;5136323;27;20769;-67
2022/07/13 03:27:05;;;;;;;2.77;2.43;;;;;;;17.07;73.51;99710.66;5136339;27;20201;-67
2022/07/13 03:29:32;;;;;;;2.50;2.30;;;;;;;17.00;73.72;99709.28;5136187;27;20250;-67
2022/07/13 03:31:59;;;;;;;2.93;2.80;;;;;;;16.99;73.90;99714.56;5130881;27;20218;-67
2022/07/13 03:34:26;;;;;;;2.40;2.20;;;;;;;16.99;73.97;99720.59;5115664;28;20692;-66
2022/07/13 03:36:53;;;;;;;3.27;2.37;;;;;;;17.01;73.91;99717.91;5115836;28;20203;-67
2022/07/13 03:39:19;;;;;;;2.80;2.60;;;;;;;17.04;74.03;99721.16;5115655;28;20218;-67
2022/07/13 03:41:48;;;;;;;2.20;2.20;;;;;;;17.10;74.20;99725.19;5115560;28;20210;-67
2022/07/13 03:44:14;;;;;;;2.93;2.80;;;;;;;17.22;74.02;99722.78;5115433;28;20203;-67
2022/07/13 03:46:41;;;;;;;6.40;3.10;;;;;;;17.31;73.35;99726.69;5132829;27;20198;-66
2022/07/13 03:49:08;;;;;;;2.63;2.53;;;;;;;17.39;72.92;99721.91;5136030;27;20237;-66
2022/07/13 03:51:36;;;;;;;2.93;2.73;;;;;;;17.48;72.63;99725.78;5135781;27;20202;-66
2022/07/13 03:54:03;;;;;;;4.53;2.93;;;;;;;17.53;72.01;99728.97;5136175;27;20302;-67
2022/07/13 03:56:30;;;;;;;2.37;2.27;;;;;;;17.61;71.99;99725.06;5135827;27;20262;-67
2022/07/13 03:58:58;;;;;;;2.57;2.30;;;;;;;17.66;71.44;99730.88;5135633;27;20219;-66
2022/07/13 04:01:25;;;;;;;3.30;2.73;;;;;;;17.74;71.70;99720.91;5135834;27;20202;-66
2022/07/13 04:03:52;;;;;;;2.43;2.00;;;;;;;17.87;71.47;99720.25;5135514;27;20202;-67
2022/07/13 04:06:19;;;;;;;2.80;2.60;;;;;;;17.96;71.07;99719.75;5135601;27;20253;-67
2022/07/13 04:08:46;;;;;;;2.90;2.63;;;;;;;18.05;70.45;99722.66;5135468;27;20666;-66
2022/07/13 04:11:13;;;;;;;2.20;2.10;;;;;;;18.20;70.57;99728.75;5135569;27;20202;-67
2022/07/13 04:13:39;;;;;;;2.27;1.97;;;;;;;18.33;69.87;99725.38;5135570;27;20209;-67
2022/07/13 04:16:08;;;;;;;2.00;1.90;;;;;;;18.49;68.73;99727.09;5115494;27;20563;-67
2022/07/13 04:18:35;;;;;;;1.73;1.70;;;;;;;18.61;68.65;99727.25;5114833;28;20207;-67
2022/07/13 04:21:02;;;;;;;3.33;2.07;;;;;;;18.73;67.40;99728.31;5114696;28;20203;-67
2022/07/13 04:23:29;;;;;;;2.00;1.90;;;;;;;18.85;66.86;99732.78;5114749;28;20211;-67
2022/07/13 04:25:56;;;;;;;5.10;1.77;;;;;;;18.98;66.83;99738.09;5114559;27;20313;-66
2022/07/13 04:28:25;;;;;;;1.60;1.60;;;;;;;19.09;66.04;99735.72;5114741;28;20666;-67
2022/07/13 04:30:52;;;;;;;1.60;1.50;;;;;;;19.23;66.06;99733.09;5119469;27;20200;-67
2022/07/13 04:33:20;;;;;;;1.50;1.50;;;;;;;19.42;66.58;99738.88;5135206;27;20199;-67
2022/07/13 04:35:47;;;;;;;1.50;1.50;;;;;;;19.48;66.44;99712.53;5135236;27;20196;-67
2022/07/13 04:38:14;;;;;;;1.13;1.13;;;;;;;19.71;64.18;99711.91;5134906;27;20289;-67
2022/07/13 04:40:41;;;;;;;2.40;1.73;;;;;;;19.95;64.19;99727.75;5134876;27;20204;-67
2022/07/13 04:43:08;;;;;;;2.20;2.00;;;;;;;20.17;62.58;99743.69;5134766;27;20208;-67
2022/07/13 04:45:35;;;;;;;1.27;1.27;;;;;;;20.34;61.95;99740.88;5134729;27;20220;-67
2022/07/13 04:48:01;;;;;;;1.50;1.50;;;;;;;20.50;61.59;99740.72;5134469;27;20236;-66
2022/07/13 04:50:30;;;;;;;1.60;1.50;;;;;;;20.65;61.47;99742.28;5121704;27;20202;-67
2022/07/13 04:52:57;;;;;;;1.87;1.60;;;;;;;20.75;60.80;99738.16;5114285;28;20677;-67
2022/07/13 04:55:24;;;;;;;1.37;1.37;;;;;;;20.92;61.89;99731.81;5114046;28;20217;-67
2022/07/13 04:57:50;;;;;;;3.73;1.90;;;;;;;21.13;59.76;99740.00;5114116;28;20674;-68
2022/07/13 05:00:17;;;;;;;1.93;1.83;;;;;;;21.30;60.28;99747.47;5113868;28;20210;-67
2022/07/13 05:02:44;;;;;;;4.07;1.60;;;;;;;21.39;59.74;99746.84;5113957;28;20209;-67
2022/07/13 05:05:11;;;;;;;1.63;1.40;;;;;;;21.50;58.17;99746.94;5123190;27;20213;-67
2022/07/13 05:07:39;;;;;;;3.30;2.93;;;;;;;21.57;57.75;99748.19;5134554;27;20201;-67
2022/07/13 05:10:08;;;;;;;1.60;1.60;;;;;;;21.69;58.99;99749.09;5134806;27;20619;-68
2022/07/13 05:12:39;;;;;;;1.80;1.70;;;;;;;21.79;58.81;99750.97;5134283;27;20201;-68
2022/07/13 05:15:07;;;;;;;1.83;1.73;;;;;;;21.97;58.65;99749.69;5134281;27;20251;-67
2022/07/13 05:17:34;;;;;;;2.17;1.97;;;;;;;22.16;57.20;99753.59;5134328;27;20215;-67
2022/07/13 05:20:01;;;;;;;3.27;1.80;;;;;;;22.32;57.17;99744.56;5117280;27;20693;-68
2022/07/13 05:22:28;;;;;;;1.90;1.80;;;;;;;22.50;55.03;99744.97;5113488;28;20567;-68
2022/07/13 05:24:56;;;;;;;1.87;1.70;;;;;;;22.75;55.89;99749.22;5113749;28;20215;-68
2022/07/13 05:27:23;;;;;;;1.47;1.37;;;;;;;22.89;54.44;99744.66;5113496;28;20587;-67
2022/07/13 05:29:51;;;;;;;3.47;1.87;;;;;;;23.16;54.19;99753.97;5133905;27;20642;-68
2022/07/13 05:32:18;;;;;;;2.27;1.60;;;;;;;23.33;52.54;99753.50;5131362;27;20201;-67
2022/07/13 05:34:45;;;;;;;2.07;1.73;;;;;;;23.45;50.14;99744.75;5113407;27;20586;-67
2022/07/13 05:37:12;;;;;;;1.47;1.37;;;;;;;23.57;49.34;99756.88;5113270;28;20203;-68
2022/07/13 05:39:42;;;;;;;4.80;1.80;;;;;;;23.68;49.67;99764.72;5113011;28;20202;-67
2022/07/13 05:42:10;;;;;;;1.30;1.20;;;;;;;23.88;49.58;99771.00;5113261;28;20567;-67
2022/07/13 05:44:37;;;;;;;1.40;1.30;;;;;;;24.06;47.60;99769.56;5113030;28;20636;-67
2022/07/13 05:47:04;;;;;;;1.20;1.20;;;;;;;24.14;49.37;99740.13;5113045;28;20242;-68
2022/07/13 05:49:31;;;;;;;1.03;1.03;;;;;;;24.48;49.69;99754.81;5113290;28;20198;-68
2022/07/13 05:51:59;;;;;;;2.20;1.50;;;;;;;24.59;49.32;99739.00;5113981;28;20654;-68
2022/07/13 05:54:25;;;;;;;6.07;2.20;;;;;;;24.75;47.49;99746.47;5113216;28;20198;-69
2022/07/13 05:56:52;;;;;;;2.93;1.57;;;;;;;24.87;46.66;99751.53;5112768;27;20199;-72
2022/07/13 05:59:21;;;;;;;2.43;1.30;;;;;;;24.92;46.16;99748.50;5131617;27;20210;-71
2022/07/13 06:01:48;;;;;;;3.03;1.13;;;;;;;24.99;46.57;99750.50;5123847;27;20636;-70
2022/07/13 06:04:15;;;;;;;1.43;1.33;;;;;;;25.06;46.86;99743.78;5125728;27;20213;-71
2022/07/13 06:06:41;;;;;;;10.07;1.63;;;;;;;25.15;44.92;99743.97;5133193;27;20609;-72
2022/07/13 06:09:08;;;;;;;4.47;1.17;;;;;;;25.16;43.94;99740.38;5133448;27;20630;-71
2022/07/13 06:11:35;;;;;;;2.40;1.17;;;;;;;25.18;45.19;99738.44;5128665;27;20202;-72
2022/07/13 06:14:02;;;;;;;0.80;0.80;;;;;;;25.34;45.47;99734.38;5124239;27;20202;-72
2022/07/13 06:16:30;;;;;;;0.87;0.87;;;;;;;25.57;47.27;99735.91;5123284;27;20194;-68
2022/07/13 06:18:57;;;;;;;0.90;0.90;;;;;;;25.81;45.24;99747.88;5116897;27;20226;-76
2022/07/13 06:21:24;;;;;;;3.30;0.90;;;;;;;25.93;43.15;99731.00;5119949;27;20201;-72
2022/07/13 06:23:50;;;;;;;2.27;0.80;;;;;;;25.86;42.39;99732.50;5128761;27;20661;-72
2022/07/13 06:26:17;;;;;;;1.17;0.80;;;;;;;25.78;42.74;99738.47;5128400;27;20217;-70
2022/07/13 06:28:44;;;;;;;1.10;1.00;;;;;;;25.96;43.39;99731.56;5129246;27;20206;-71
2022/07/13 06:31:11;;;;;;;13.07;2.37;;;;;;;26.11;44.56;99724.94;5128579;27;20209;-70
2022/07/13 06:33:41;;;;;;;5.50;1.00;;;;;;;26.20;42.51;99727.78;5126005;27;20224;-72
2022/07/13 06:36:08;;;;;;;3.10;1.20;;;;;;;26.28;43.99;99727.91;5132914;27;20321;-69
2022/07/13 06:38:35;;;;;;;2.97;0.80;;;;;;;26.37;42.27;99729.69;5132610;27;20217;-72
2022/07/13 06:41:02;;;;;;;5.70;0.90;;;;;;;26.52;44.97;99726.53;5132827;27;20223;-69
2022/07/13 06:43:29;;;;;;;5.70;1.17;;;;;;;26.70;43.04;99731.91;5132443;27;20198;-69
2022/07/13 06:45:56;;;;;;;1.23;0.93;;;;;;;26.93;41.54;99722.75;5132909;28;20217;-74
2022/07/13 06:48:22;;;;;;;6.20;1.03;;;;;;;27.03;39.56;99728.00;5123545;27;20233;-72
2022/07/13 06:50:50;;;;;;;3.00;1.10;;;;;;;27.11;39.64;99726.28;5120393;28;20194;-70
2022/07/13 06:53:17;;;;;;;11.40;2.63;;;;;;;27.14;39.14;99727.84;5132754;28;20198;-69
2022/07/13 06:55:45;;;;;;;3.60;0.80;;;;;;;27.21;40.14;99728.06;5125312;28;20206;-68
2022/07/13 06:58:11;;;;;;;1.70;0.80;;;;;;;27.35;39.17;99727.59;5121080;28;20240;-68
2022/07/13 07:00:38;;;;;;;11.80;1.93;;;;;;;27.49;39.06;99728.00;5125777;28;20202;-69
2022/07/13 07:03:05;;;;;;;0.80;0.80;;;;;;;27.54;39.40;99717.00;5128870;27;20559;-72
2022/07/13 07:05:32;;;;;;;0.80;0.80;;;;;;;27.59;40.89;99715.59;5131647;28;20232;-70
2022/07/13 07:08:02;;;;;;;2.03;0.83;;;;;;;27.63;39.23;99710.88;5132446;27;20581;-70
2022/07/13 07:10:29;;;;;;;0.73;0.73;;;;;;;27.67;41.08;99717.50;5132525;28;20645;-72
2022/07/13 07:12:55;;;;;;;2.97;1.67;;;;;;;27.57;40.04;99714.09;5131830;27;20202;-72
2022/07/13 07:15:23;;;;;;;0.63;0.63;;;;;;;27.59;38.69;99710.31;5132841;27;20205;-71
2022/07/13 07:17:50;;;;;;;0.60;0.60;;;;;;;27.89;38.51;99710.97;5132298;27;20202;-72
2022/07/13 07:20:17;;;;;;;0.50;0.50;;;;;;;28.15;40.75;99704.88;5131854;28;20198;-76
2022/07/13 07:22:46;;;;;;;3.30;1.10;;;;;;;28.26;39.69;99710.91;5130805;28;20280;-76
2022/07/13 07:25:14;;;;;;;10.07;2.00;;;;;;;28.11;37.96;99705.34;5133839;28;20202;-80
2022/07/13 07:27:42;;;;;;;0.50;0.50;;;;;;;28.04;39.27;99707.72;5122342;27;20227;-71
2022/07/13 07:30:10;;;;;;;1.50;0.80;;;;;;;28.17;41.25;99712.66;5124384;28;20202;-76
2022/07/13 07:32:37;;;;;;;1.93;1.10;;;;;;;28.41;38.95;99712.00;5127948;28;20266;-73
2022/07/13 07:35:05;;;;;;;0.67;0.67;;;;;;;28.59;37.34;99716.31;5134599;28;20175;-73
2022/07/13 07:37:32;;;;;;;3.33;0.87;;;;;;;28.85;36.13;99704.97;5131995;28;20201;-75
2022/07/13 07:39:59;;;;;;;1.13;0.60;;;;;;;28.84;36.51;99703.31;5126283;28;20577;-73
2022/07/13 07:42:29;;;;;;;0.77;0.77;;;;;;;29.14;37.06;99716.03;5133246;27;20202;-72
2022/07/13 07:44:56;;;;;;;3.40;0.80;;;;;;;29.24;36.25;99703.56;5132455;27;20206;-69
2022/07/13 07:47:25;;;;;;;0.60;0.60;;;;;;;29.19;37.46;99711.94;5118712;27;20226;-72
2022/07/13 07:49:52;;;;;;;0.60;0.60;;;;;;;29.37;39.56;99711.88;5123744;27;20229;-67
2022/07/13 07:52:19;;;;;;;3.00;0.80;;;;;;;29.49;34.65;99715.06;5124473;27;20198;-67
2022/07/13 07:54:46;;;;;;;1.57;0.60;;;;;;;29.40;32.52;99710.75;5124081;27;20205;-67
2022/07/13 07:57:13;;;;;;;0.50;0.40;;;;;;;29.42;32.63;99719.34;5134395;27;20210;-70
2022/07/13 07:59:42;;;;;;;0.80;0.80;;;;;;;29.44;34.51;99722.63;5135304;27;20251;-70
2022/07/13 08:02:09;;;;;;;0.60;0.57;;;;;;;29.70;33.13;99718.13;5134780;27;20202;-70
2022/07/13 08:04:36;;;;;;;0.75;0.63;;;;;;;29.86;33.30;99717.34;5127197;27;20202;-71
2022/07/13 08:07:03;;;;;;;0.40;0.40;;;;;;;30.05;32.92;99712.59;5132420;27;20229;-74
2022/07/13 08:09:29;;;;;;;0.60;0.57;;;;;;;30.09;32.87;99724.53;5134797;27;20212;-75
2022/07/13 08:11:56;;;;;;;1.85;0.50;;;;;;;30.23;30.63;99714.28;5135551;27;20213;-69
2022/07/13 08:14:23;;;;;;;4.40;0.90;;;;;;;30.40;33.41;99723.94;5135263;27;20205;-69
2022/07/13 08:16:51;;;;;;;0.73;0.70;;;;;;;30.44;32.45;99718.13;5136561;27;20255;-74
2022/07/13 08:19:18;;;;;;;0.73;0.57;;;;;;;30.48;30.97;99722.13;5140810;27;20194;-71
2022/07/13 08:21:45;;;;;;;0.60;0.60;;;;;;;30.70;31.91;99720.59;5136754;27;20202;-72
2022/07/13 08:24:12;;;;;;;0.75;0.50;;;;;;;30.56;30.82;99724.78;5135448;27;20263;-71
2022/07/13 08:26:39;;;;;;;0.60;0.60;;;;;;;30.41;33.46;99717.63;5135076;27;20267;-72
2022/07/13 08:29:05;;;;;;;1.50;0.60;;;;;;;30.29;31.45;99721.56;5135275;27;20205;-71
2022/07/13 08:31:32;;;;;;;0.60;0.60;;;;;;;30.49;34.04;99715.00;5135327;27;20210;-71
2022/07/13 08:39:37;;;;;;;2.35;0.65;;;;;;;30.95;31.28;99722.28;5135363;27;20229;-70
2022/07/13 08:42:04;;;;;;;0.65;0.65;;;;;;;31.11;32.69;99716.94;5128121;27;20206;-73
2022/07/13 08:44:31;;;;;;;1.85;1.48;;;;;;;31.20;30.09;99721.22;5125144;27;20190;-71
2022/07/13 08:47:00;;;;;;;1.00;0.47;;;;;;;31.34;28.75;99721.50;5121088;27;20225;-70
2022/07/13 08:49:29;;;;;;;6.68;0.80;;;;;;;30.88;30.95;99721.25;5114447;28;20714;-69
2022/07/13 08:51:57;;;;;;;0.63;0.63;;;;;;;30.84;32.04;99713.81;5132467;27;20666;-70
2022/07/13 08:54:24;;;;;;;2.00;0.57;;;;;;;30.73;33.95;99710.50;5134822;27;20206;-67
2022/07/13 08:56:52;;;;;;;1.27;0.57;;;;;;;30.93;33.97;99708.34;5131462;27;20194;-72
2022/07/13 08:59:18;;;;;;;2.13;0.60;;;;;;;31.10;30.97;99710.00;5120957;27;20248;-73
2022/07/13 09:01:45;;;;;;;1.08;0.63;;;;;;;31.24;30.48;99717.22;5133208;27;20209;-76
2022/07/13 09:04:12;;;;;;;0.63;0.50;;;;;;;31.13;32.05;99714.94;5124375;27;20285;-73
2022/07/13 09:06:45;;;;;;;1.58;0.50;;;;;;;31.29;30.50;99718.53;5126015;27;20211;-73
2022/07/13 09:09:33;;;;;;;1.10;0.43;;;;;;;31.23;33.34;99715.56;5129261;27;20205;-72
2022/07/13 09:12:18;;;;;;;0.82;0.82;;;;;;;31.07;30.53;99707.69;5118714;27;20254;-73
2022/07/13 09:14:51;;;;;;;0.80;0.70;;;;;;;31.06;31.50;99716.59;5121042;27;20197;-73
2022/07/13 09:17:36;;;;;;;0.57;0.57;;;;;;;30.96;30.40;99720.44;5118326;27;20650;-73
2022/07/13 09:20:18;;;;;;;0.52;0.52;;;;;;;30.72;32.08;99716.00;5116725;27;20198;-70
2022/07/13 09:22:52;;;;;;;0.90;0.50;;;;;;;30.55;32.67;99699.28;5123067;27;20194;-72
2022/07/13 09:25:30;;;;;;;0.40;0.40;;;;;;;30.90;31.13;99713.97;5132485;27;20581;-73
2022/07/13 09:28:01;;;;;;;1.63;0.60;;;;;;;30.91;30.18;99715.63;5123357;27;20213;-73
2022/07/13 09:30:28;;;;;;;0.43;0.43;;;;;;;30.85;31.51;99711.00;5124319;27;20203;-72
2022/07/13 09:32:56;;;;;;;3.50;0.60;;;;;;;30.70;33.24;99712.66;5133835;27;20194;-73
2022/07/13 09:35:42;;;;;;;0.65;0.65;;;;;;;30.80;31.17;99713.31;5129698;27;20618;-73
2022/07/13 09:38:11;;;;;;;0.50;0.50;;;;;;;31.01;30.40;99721.59;5127128;27;20694;-73
2022/07/13 09:40:38;;;;;;;4.30;0.90;;;;;;;31.03;30.49;99719.59;5126842;27;20199;-73
2022/07/13 09:48:33;;;;;;;1.17;0.50;;;;;;;31.12;29.69;99696.56;5133223;27;20711;-72
2022/07/13 09:51:01;;;;;;;0.70;0.70;;;;;;;31.08;30.14;99705.88;5117630;27;20202;-71
2022/07/13 09:53:30;;;;;;;0.77;0.60;;;;;;;31.16;32.24;99698.72;5112946;28;20582;-71
2022/07/13 09:55:59;;;;;;;0.50;0.50;;;;;;;31.23;32.05;99694.38;5125073;27;20201;-69
2022/07/13 09:58:30;;;;;;;0.57;0.57;;;;;;;31.50;32.22;99689.69;5121746;27;20318;-72
2022/07/13 10:00:59;;;;;;;0.57;0.57;;;;;;;31.64;31.67;99692.41;5124025;27;20202;-68
2022/07/13 10:03:27;;;;;;;0.50;0.50;;;;;;;31.64;29.55;99700.34;5125491;27;20206;-69
2022/07/13 10:05:55;;;;;;;1.13;0.52;;;;;;;31.83;28.43;99687.69;5126563;27;20203;-73
2022/07/13 10:08:23;;;;;;;1.58;0.60;;;;;;;31.70;29.99;99685.56;5129137;27;20217;-73
2022/07/13 10:10:53;;;;;;;1.85;0.40;;;;;;;31.62;29.23;99683.81;5132929;27;20672;-72
2022/07/13 10:13:20;;;;;;;7.13;0.60;;;;;;;31.64;31.05;99676.50;5121306;27;20250;-73
2022/07/13 10:15:48;;;;;;;1.38;0.47;;;;;;;31.69;33.21;99684.78;5120966;27;20198;-71
2022/07/13 10:18:21;;;;;;;0.50;0.50;;;;;;;31.51;30.29;99681.53;5122387;27;20689;-73
2022/07/13 10:20:53;;;;;;;1.30;0.80;;;;;;;31.30;28.77;99668.03;5125866;27;20199;-72
2022/07/13 10:23:33;;;;;;;0.40;0.40;;;;;;;31.34;30.56;99671.16;5124305;27;20190;-73
2022/07/13 10:26:02;;;;;;;4.03;0.85;;;;;;;31.19;30.86;99661.28;5128985;27;20605;-73
2022/07/13 10:28:29;;;;;;;0.70;0.60;;;;;;;31.23;32.03;99657.31;5115353;27;20225;-73
2022/07/13 10:30:56;;;;;;;1.20;0.70;;;;;;;31.30;32.14;99656.59;5125875;27;20213;-72
2022/07/13 10:33:25;;;;;;;4.68;0.63;;;;;;;31.15;32.17;99659.13;5133338;27;20259;-74
2022/07/13 10:35:54;;;;;;;5.15;0.70;;;;;;;31.34;31.55;99660.56;5133151;27;20247;-73
2022/07/13 10:38:26;;;;;;;2.20;0.77;;;;;;;31.51;29.59;99662.16;5133430;27;20194;-73
2022/07/13 10:41:20;;;;;;;1.13;0.70;;;;;;;31.68;34.14;99645.16;5129456;27;20216;-74
2022/07/13 10:43:53;;;;;;;0.82;0.80;;;;;;;31.60;29.77;99647.88;5132663;27;20720;-72
2022/07/13 10:46:49;;;;;;;0.70;0.70;;;;;;;31.53;31.77;99653.06;5125362;28;20716;-74
2022/07/13 10:49:44;;;;;;;2.33;0.75;;;;;;;31.74;31.53;99655.06;5131940;28;20222;-74
2022/07/13 10:52:58;;;;;;;3.15;0.75;;;;;;;31.87;29.54;99639.41;5131290;28;20249;-75
2022/07/13 10:55:29;;;;;;;0.47;0.47;;;;;;;31.72;29.80;99638.53;5109484;27;20194;-75
2022/07/13 10:57:57;;;;;;;2.42;0.60;;;;;;;31.66;29.53;99640.06;5127372;28;20207;-74
2022/07/13 11:00:41;;;;;;;1.13;0.88;;;;;;;31.64;28.41;99628.78;5117765;28;20247;-74
2022/07/13 11:03:24;;;;;;;0.88;0.80;;;;;;;31.62;31.24;99622.00;5131148;28;20195;-73
2022/07/13 11:06:08;;;;;;;12.90;1.98;;;;;;;31.65;29.63;99619.00;5131044;28;20199;-75
2022/07/13 11:08:35;;;;;;;0.50;0.50;;;;;;;31.65;27.75;99627.78;5124454;28;20445;-71
2022/07/13 11:11:14;;;;;;;1.10;0.40;;;;;;;31.75;28.77;99619.59;5115705;28;20865;-68
2022/07/13 11:13:44;;;;;;;0.55;0.43;;;;;;;31.86;28.09;99623.69;5119198;28;20202;-67
2022/07/13 11:16:12;;;;;;;1.73;1.00;;;;;;;31.61;29.15;99617.69;5125521;28;20544;-67
2022/07/13 11:18:40;;;;;;;0.75;0.75;;;;;;;30.86;28.35;99622.63;5124155;28;20595;-67
2022/07/13 11:21:10;;;;;;;0.60;0.50;;;;;;;30.87;30.00;99623.47;5121716;28;20735;-67
2022/07/13 11:26:48;;;;;;;3.38;0.70;;;;;;;30.90;29.96;99613.34;5122771;27;20201;-69
2022/07/13 11:29:19;;;;;;;1.52;0.70;;;;;;;30.96;30.16;99607.41;5130722;27;20573;-68
2022/07/13 11:31:46;;;;;;;2.38;0.93;;;;;;;31.09;30.50;99607.69;5134414;27;20202;-68
2022/07/13 11:34:13;;;;;;;0.50;0.50;;;;;;;31.11;31.08;99611.00;5131112;27;20721;-67
2022/07/13 11:36:43;;;;;;;1.67;1.10;;;;;;;31.15;29.71;99601.69;5125639;27;20206;-68
2022/07/13 11:39:22;;;;;;;3.10;0.95;;;;;;;31.16;31.10;99602.53;5128891;27;20294;-68
2022/07/13 11:41:51;;;;;;;1.40;1.40;;;;;;;31.30;30.70;99608.91;5128220;27;20198;-68
2022/07/13 11:44:22;;;;;;;1.08;0.90;;;;;;;31.49;31.23;99598.72;5126942;27;20220;-68
2022/07/13 11:46:50;;;;;;;1.65;0.50;;;;;;;31.56;30.04;99593.56;5130326;27;20254;-69
2022/07/13 11:49:16;;;;;;;0.50;0.50;;;;;;;31.69;29.30;99596.47;5132487;27;20230;-69
2022/07/13 11:51:45;;;;;;;1.02;0.70;;;;;;;31.78;26.54;99598.03;5122989;27;20203;-69
2022/07/13 11:54:13;;;;;;;0.45;0.45;;;;;;;31.82;30.37;99588.75;5124808;27;20684;-69